Ana Sayfa
METAR-TAF:

METAR-TAF

Havaalanları :

Chicago Executive Airport

Wheeling / Prospect Heights, Illinois, Amerika Birleşik Devletleri

Enlem: 42-07-15N, Boylam: 087-54-17W, yükseklik: 197 m

Güncel hava durumu gözlemi

Rapor saat 08:52 UTC de 32 dakika önce yapıldı.
Rüzgar güney/güneybatıdan 4 kt
Sıcaklık 22°C
Nem 83%
Basınç 1013 hPa
Görüş mesafesi: 16.1 km
Açık gökyüzü

METAR: KPWK 250852Z AUTO 20004KT 10SM CLR 22/19 A2990 RMK AO2 SLP120 T02170189 58006

Saat: 04:24 (09:24 UTC)


TAF: eksik

4.000'den fazla havaalanı için hava durumu gözlemleri ve tahminleri (METAR ve TAF raporları).

Kullanılabilir istasyonlar harita üzerinde sarı ve kırmızı noktalarla gösterilir.

İstasyonun adını görmek için fareyi noktanın üzerinde gezdirin.

Sonrasında hava gözlem ve tahminlerini görmek için tıklayın.

Haritayı değiştirmek için: yaklaştırmak için siyah artı işaretli yeşil düğmeye ve uzaklaştırmak için de eksi işaretli düğmeye hızla tıklayın; bitişik haritalar için yeşil okları kullanın.


METAR-TAF: